VVPB/HUI METAR and TAF weather

Enter ICAO airport designator
Station Type Date Time Source
VVPB METAR 2022/05/23 13:30 UTC NOAA

VVPB 231330Z 22003KT 9999 FEW015 BKN050 28/26 Q1005 NOSIG


Station Type Date Time Source
VVPB Decoded METAR 2022/05/23 13:30 UTC NOAA

Hue, Vietnam (VVPB) 16-24N 107-41E 17M
May 23, 2022 - 09:30 AM EDT / 2022.05.23 1330 UTC
Wind: from the SW (220 degrees) at 3 MPH (3 KT):0
Visibility: greater than 7 mile(s):0
Sky conditions: mostly cloudy
Temperature: 82 F (28 C)
Dew Point: 78 F (26 C)
Relative Humidity: 88%
Pressure (altimeter): 29.68 in. Hg (1005 hPa)
ob: VVPB 231330Z 22003KT 9999 FEW015 BKN050 28/26 Q1005 NOSIG
cycle: 13

Station Type Date Time Source
VVPB TAF 2022/05/23 12:00 UTC NOAA

TAF VVPB 231100Z 2312/2412 21005KT 9999 FEW015 SCT050
TEMPO 2312/2314 TS FEW015 FEW017CB SCT050
BECMG 2402/2403 10010KT
TEMPO 2408/2412 TS FEW015 FEW017CB SCT050

Example: see airport list